Time;durP1;ratioP1;P1;durP2;ratioP2;P2;SDS_P1;SDS_P2;PMS_P1;PMS_P2;Temp;Humidity;BMP_temperature;BMP_pressure;BME280_temperature;BME280_humidity;BME280_pressure;Samples;Min_cycle;Max_cycle;Signal;HPM_P1;HPM_P2
2023/04/07 00:02:26;;;;;;;31.25;28.25;;;6.60;99.90;;;;;;5040912;28;20068;-74
2023/04/07 00:04:52;;;;;;;29.73;27.00;;;6.60;99.90;;;;;;5040757;28;20892;-74
2023/04/07 00:07:19;;;;;;;30.35;27.33;;;6.60;99.90;;;;;;5015091;28;20068;-75
2023/04/07 00:09:46;;;;;;;29.48;26.67;;;6.60;99.90;;;;;;5022678;28;20044;-74
2023/04/07 00:12:13;;;;;;;49.67;38.83;;;6.60;99.90;;;;;;5068487;28;20043;-73
2023/04/07 00:14:39;;;;;;;30.05;27.05;;;6.60;99.90;;;;;;5049085;28;20047;-74
2023/04/07 00:17:06;;;;;;;27.30;24.88;;;6.60;99.90;;;;;;5046840;28;20045;-77
2023/04/07 00:19:32;;;;;;;28.63;25.83;;;6.50;99.90;;;;;;5042913;28;20048;-74
2023/04/07 00:22:00;;;;;;;31.73;28.13;;;6.40;99.90;;;;;;5041168;28;20123;-79
2023/04/07 00:24:26;;;;;;;28.75;25.90;;;6.40;99.90;;;;;;5042993;28;20053;-74
2023/04/07 00:27:00;;;;;;;30.88;25.52;;;6.40;99.90;;;;;;5044033;28;20131;-74
2023/04/07 00:29:27;;;;;;;27.45;24.75;;;6.40;99.90;;;;;;5058317;28;20044;-76
2023/04/07 00:31:54;;;;;;;27.30;24.63;;;6.40;99.90;;;;;;5029062;28;20051;-74
2023/04/07 00:34:21;;;;;;;38.92;30.13;;;6.40;99.90;;;;;;5044198;28;20048;-73
2023/04/07 00:36:51;;;;;;;28.50;25.60;;;6.40;99.90;;;;;;5028578;28;20045;-76
2023/04/07 00:39:18;;;;;;;27.25;24.48;;;6.40;99.90;;;;;;5044282;28;20041;-77
2023/04/07 00:41:46;;;;;;;26.75;24.08;;;6.40;99.90;;;;;;5053549;28;20075;-73
2023/04/07 00:44:13;;;;;;;26.45;23.42;;;6.30;99.90;;;;;;5050779;28;20527;-77
2023/04/07 00:46:46;;;;;;;91.65;42.05;;;6.30;99.90;;;;;;5028852;28;20040;-78
2023/04/07 00:49:14;;;;;;;28.35;24.42;;;6.20;99.90;;;;;;5045335;28;20071;-76
2023/04/07 00:51:41;;;;;;;27.02;24.13;;;6.20;99.90;;;;;;5034759;28;20496;-77
2023/04/07 00:54:08;;;;;;;28.52;24.08;;;6.20;99.90;;;;;;5045670;28;20056;-76
2023/04/07 00:56:35;;;;;;;28.65;24.63;;;6.10;99.90;;;;;;5037687;28;20593;-78
2023/04/07 00:59:05;;;;;;;25.75;23.05;;;6.10;99.90;;;;;;5051595;28;20076;-77
2023/04/07 01:02:08;;;;;;;30.40;24.17;;;6.00;99.90;;;;;;5042905;28;20047;-78
2023/04/07 01:05:01;;;;;;;24.92;22.40;;;6.00;99.90;;;;;;5063230;28;20531;-77
2023/04/07 01:07:34;;;;;;;25.33;21.75;;;6.10;99.90;;;;;;5076532;28;20255;-77
2023/04/07 01:10:11;;;;;;;24.23;21.67;;;6.00;99.90;;;;;;5047947;28;20050;-77
2023/04/07 01:13:03;;;;;;;27.50;22.85;;;5.90;99.90;;;;;;5062599;28;20131;-76
2023/04/07 01:15:32;;;;;;;33.95;24.05;;;5.90;99.90;;;;;;5060497;28;20052;-77
2023/04/07 01:18:08;;;;;;;27.48;22.75;;;6.00;99.90;;;;;;5058084;28;20054;-76
2023/04/07 01:20:37;;;;;;;31.10;23.85;;;6.00;99.90;;;;;;5061197;28;20600;-77
2023/04/07 01:23:06;;;;;;;31.98;23.48;;;6.00;99.90;;;;;;5064433;28;20044;-77
2023/04/07 01:26:00;;;;;;;31.05;21.95;;;5.90;99.90;;;;;;5059331;28;20044;-75
2023/04/07 01:28:45;;;;;;;29.98;22.02;;;5.90;99.90;;;;;;5045900;28;20124;-76
2023/04/07 01:31:15;;;;;;;29.52;22.25;;;5.80;99.90;;;;;;5069303;28;20042;-77
2023/04/07 01:33:44;;;;;;;30.52;22.23;;;5.80;99.90;;;;;;5058292;28;20044;-76
2023/04/07 01:36:12;;;;;;;33.40;22.52;;;5.80;99.90;;;;;;5076055;28;20036;-76
2023/04/07 01:38:39;;;;;;;32.10;20.85;;;5.80;99.90;;;;;;5044280;28;20097;-77
2023/04/07 01:41:08;;;;;;;33.63;22.55;;;5.80;99.90;;;;;;5060174;28;20044;-77
2023/04/07 01:43:36;;;;;;;31.60;22.40;;;5.80;99.90;;;;;;5056929;28;20492;-77
2023/04/07 01:46:04;;;;;;;31.60;22.35;;;5.70;99.90;;;;;;5041973;28;20180;-77
2023/04/07 01:48:31;;;;;;;34.97;22.65;;;5.70;99.90;;;;;;5059231;28;20078;-78
2023/04/07 01:50:59;;;;;;;35.15;24.42;;;5.70;99.90;;;;;;5038595;28;20495;-78
2023/04/07 01:53:27;;;;;;;34.50;22.48;;;5.70;99.90;;;;;;5042096;28;20071;-78
2023/04/07 01:55:54;;;;;;;29.58;20.02;;;5.60;99.90;;;;;;5045199;28;20040;-78
2023/04/07 01:58:21;;;;;;;37.10;22.17;;;5.60;99.90;;;;;;5049840;28;20048;-79
2023/04/07 02:00:50;;;;;;;35.25;21.50;;;5.60;99.90;;;;;;5042156;28;20047;-78
2023/04/07 02:03:30;;;;;;;39.92;24.35;;;5.60;99.90;;;;;;5045268;28;20040;-78
2023/04/07 02:06:05;;;;;;;45.03;24.67;;;5.60;99.90;;;;;;5045760;28;20067;-78
2023/04/07 02:08:34;;;;;;;35.33;21.17;;;5.60;99.90;;;;;;5040724;28;20048;-79
2023/04/07 02:11:06;;;;;;;42.55;25.58;;;5.50;99.90;;;;;;5051525;28;20048;-78
2023/04/07 02:13:36;;;;;;;40.20;23.05;;;5.60;99.90;;;;;;5042431;28;20098;-79
2023/04/07 02:16:05;;;;;;;41.13;24.02;;;5.50;99.90;;;;;;5057586;28;20113;-79
2023/04/07 02:18:32;;;;;;;47.72;25.80;;;5.50;99.90;;;;;;5057933;28;20040;-79
2023/04/07 02:21:01;;;;;;;37.50;22.67;;;5.50;99.90;;;;;;5045762;28;20040;-77
2023/04/07 02:23:28;;;;;;;41.95;25.15;;;5.50;99.90;;;;;;5071133;28;20068;-78
2023/04/07 02:25:59;;;;;;;37.22;21.90;;;5.50;99.90;;;;;;5078701;28;20096;-76
2023/04/07 02:28:26;;;;;;;43.63;24.90;;;5.40;99.90;;;;;;5068397;28;20042;-78
2023/04/07 02:30:52;;;;;;;41.40;24.63;;;5.40;99.90;;;;;;5047657;28;20593;-78
2023/04/07 02:33:20;;;;;;;43.40;25.95;;;5.50;99.90;;;;;;5061670;28;20093;-77
2023/04/07 02:35:47;;;;;;;43.22;24.70;;;5.40;99.90;;;;;;5060443;28;20457;-77
2023/04/07 02:38:13;;;;;;;43.63;25.60;;;5.40;99.90;;;;;;5065533;28;20283;-78
2023/04/07 02:40:40;;;;;;;43.78;23.58;;;5.50;99.90;;;;;;5062624;28;20101;-79
2023/04/07 02:43:07;;;;;;;47.83;27.23;;;5.50;99.90;;;;;;5040113;28;20041;-78
2023/04/07 02:45:33;;;;;;;42.38;24.50;;;5.50;99.90;;;;;;5047941;28;20063;-78
2023/04/07 02:48:02;;;;;;;43.67;25.40;;;5.50;99.90;;;;;;5062266;28;20134;-77
2023/04/07 02:50:29;;;;;;;43.75;25.73;;;5.50;99.90;;;;;;5059573;28;20029;-78
2023/04/07 02:52:56;;;;;;;40.13;22.27;;;5.50;99.90;;;;;;5040397;28;20040;-77
2023/04/07 02:55:22;;;;;;;43.47;25.35;;;5.50;99.90;;;;;;5046679;28;20039;-78
2023/04/07 02:57:49;;;;;;;43.15;25.13;;;5.40;99.90;;;;;;5043901;28;20485;-77
2023/04/07 03:00:39;;;;;;;46.90;23.83;;;5.40;99.90;;;;;;5060443;28;20117;-78
2023/04/07 03:03:10;;;;;;;45.60;26.00;;;5.40;99.90;;;;;;5061194;28;20097;-79
2023/04/07 03:05:39;;;;;;;49.78;27.30;;;5.50;99.90;;;;;;5058221;28;20132;-78
2023/04/07 03:08:08;;;;;;;46.72;24.73;;;5.40;99.90;;;;;;5042678;28;20051;-77
2023/04/07 03:10:38;;;;;;;57.47;23.88;;;5.40;99.90;;;;;;5041861;28;20036;-77
2023/04/07 03:13:07;;;;;;;51.55;27.27;;;5.40;99.90;;;;;;5058524;28;20626;-78
2023/04/07 03:15:34;;;;;;;47.83;26.58;;;5.50;99.90;;;;;;5058754;28;20818;-78
2023/04/07 03:18:01;;;;;;;46.78;26.92;;;5.40;99.90;;;;;;5056892;28;20080;-77
2023/04/07 03:20:29;;;;;;;51.10;28.63;;;5.40;99.90;;;;;;5041553;28;20040;-77
2023/04/07 03:23:01;;;;;;;53.10;28.63;;;5.40;99.90;;;;;;5060784;28;20040;-78
2023/04/07 03:25:29;;;;;;;45.65;25.67;;;5.40;99.90;;;;;;5046115;28;20050;-77
2023/04/07 03:27:56;;;;;;;51.65;27.40;;;5.40;99.90;;;;;;5058924;28;20048;-77
2023/04/07 03:30:26;;;;;;;48.13;28.80;;;5.30;99.90;;;;;;5055816;28;20044;-77
2023/04/07 03:32:53;;;;;;;50.60;29.42;;;5.40;99.90;;;;;;5044856;28;20127;-77
2023/04/07 03:35:23;;;;;;;54.85;30.38;;;5.40;99.90;;;;;;5038405;28;20048;-78
2023/04/07 03:37:49;;;;;;;54.42;27.33;;;5.40;99.90;;;;;;5052863;28;20044;-78
2023/04/07 03:40:17;;;;;;;51.17;24.77;;;5.40;99.90;;;;;;5058123;28;20043;-77
2023/04/07 03:42:45;;;;;;;56.55;30.02;;;5.30;99.90;;;;;;5041221;28;20109;-77
2023/04/07 03:45:13;;;;;;;56.45;25.17;;;5.40;99.90;;;;;;5037689;28;20115;-77
2023/04/07 03:47:45;;;;;;;58.97;31.50;;;5.40;99.90;;;;;;5045291;28;20107;-78
2023/04/07 03:50:12;;;;;;;56.13;30.17;;;5.30;99.90;;;;;;5039640;28;20102;-78
2023/04/07 03:52:49;;;;;;;52.63;27.75;;;5.30;99.90;;;;;;5055282;28;20067;-77
2023/04/07 03:55:29;;;;;;;54.58;31.15;;;5.40;99.90;;;;;;5042145;28;20040;-76
2023/04/07 03:58:01;;;;;;;56.67;29.58;;;5.30;99.90;;;;;;5055844;28;20135;-76
2023/04/07 04:00:32;;;;;;;56.55;30.35;;;5.40;99.90;;;;;;5053612;28;20125;-76
2023/04/07 04:03:10;;;;;;;55.03;28.67;;;5.40;99.90;;;;;;5053507;28;20669;-77
2023/04/07 04:05:46;;;;;;;55.03;30.58;;;5.40;99.90;;;;;;5037713;28;20044;-76
2023/04/07 04:08:17;;;;;;;42.47;21.45;;;5.30;99.90;;;;;;5043863;28;20427;-77
2023/04/07 04:10:44;;;;;;;53.85;29.75;;;5.30;99.90;;;;;;5061532;28;20109;-77
2023/04/07 04:13:10;;;;;;;48.78;26.83;;;5.30;99.90;;;;;;5061473;28;20551;-77
2023/04/07 04:15:38;;;;;;;49.83;28.02;;;5.40;99.90;;;;;;5062493;28;20044;-76
2023/04/07 04:18:11;;;;;;;48.75;25.48;;;5.30;99.90;;;;;;5062619;28;20130;-77
2023/04/07 04:20:38;;;;;;;49.58;26.98;;;5.30;99.90;;;;;;5043675;28;20059;-77
2023/04/07 04:23:06;;;;;;;47.17;26.48;;;5.30;99.90;;;;;;5041322;28;20050;-77
2023/04/07 04:25:33;;;;;;;47.03;26.15;;;5.30;99.90;;;;;;5061647;28;20210;-77
2023/04/07 04:28:04;;;;;;;50.28;26.33;;;5.30;99.90;;;;;;5057849;28;20063;-77
2023/04/07 04:30:31;;;;;;;49.95;28.15;;;5.30;99.90;;;;;;5041374;28;20078;-78
2023/04/07 04:33:01;;;;;;;47.92;28.05;;;5.40;99.90;;;;;;5064056;28;20059;-78
2023/04/07 04:35:52;;;;;;;52.92;28.58;;;5.30;99.90;;;;;;5063201;28;20186;-77
2023/04/07 04:38:20;;;;;;;40.10;22.02;;;5.30;99.90;;;;;;5046641;28;20112;-77
2023/04/07 04:41:05;;;;;;;46.95;26.40;;;5.30;99.90;;;;;;5083164;28;20168;-77
2023/04/07 04:43:33;;;;;;;50.15;28.42;;;5.30;99.90;;;;;;5070409;28;20563;-77
2023/04/07 04:46:01;;;;;;;47.88;27.13;;;5.30;99.90;;;;;;5079372;28;20127;-77
2023/04/07 04:48:32;;;;;;;42.10;22.75;;;5.30;99.90;;;;;;5059025;28;20040;-77
2023/04/07 04:50:59;;;;;;;38.25;22.45;;;5.30;99.90;;;;;;5059208;28;20036;-78
2023/04/07 04:53:26;;;;;;;42.90;24.50;;;5.30;99.90;;;;;;5044779;28;20068;-78
2023/04/07 04:55:57;;;;;;;49.63;27.55;;;5.30;99.90;;;;;;5044947;28;20056;-77
2023/04/07 04:58:36;;;;;;;47.78;26.33;;;5.20;99.90;;;;;;5046782;28;20046;-77
2023/04/07 05:01:03;;;;;;;52.88;27.52;;;5.20;99.90;;;;;;5063461;28;20587;-77
2023/04/07 05:03:40;;;;;;;43.00;24.55;;;5.20;99.90;;;;;;5045709;28;20047;-77
2023/04/07 05:06:16;;;;;;;50.40;27.60;;;5.20;99.90;;;;;;5061024;28;20468;-79
2023/04/07 05:08:46;;;;;;;47.03;26.05;;;5.30;99.90;;;;;;5043250;28;20553;-78
2023/04/07 05:11:15;;;;;;;46.17;25.60;;;5.30;99.90;;;;;;5045249;28;20107;-78
2023/04/07 05:13:44;;;;;;;56.72;27.73;;;5.30;99.90;;;;;;5045290;28;20462;-78
2023/04/07 05:16:11;;;;;;;45.20;24.83;;;5.30;99.90;;;;;;5059958;28;20075;-78
2023/04/07 05:18:38;;;;;;;47.35;25.02;;;5.30;99.90;;;;;;5046831;28;20047;-78
2023/04/07 05:21:05;;;;;;;48.95;26.88;;;5.30;99.90;;;;;;5042085;28;20036;-79
2023/04/07 05:23:35;;;;;;;43.10;25.60;;;5.30;99.90;;;;;;5041545;28;20135;-78
2023/04/07 05:26:03;;;;;;;46.83;27.73;;;5.30;99.90;;;;;;5060574;28;20052;-78
2023/04/07 05:28:30;;;;;;;43.58;25.27;;;5.30;99.90;;;;;;5039174;28;20049;-78
2023/04/07 05:31:01;;;;;;;47.10;26.85;;;5.40;99.90;;;;;;5060277;28;20071;-78
2023/04/07 05:33:31;;;;;;;44.85;25.58;;;5.40;99.90;;;;;;5057063;28;20063;-78
2023/04/07 05:35:58;;;;;;;41.55;23.73;;;5.40;99.90;;;;;;5078056;28;20067;-77
2023/04/07 05:38:25;;;;;;;43.03;23.75;;;5.30;99.90;;;;;;5056770;28;20044;-79
2023/04/07 05:40:56;;;;;;;40.78;23.98;;;5.40;99.90;;;;;;5070248;28;20044;-79
2023/04/07 05:43:26;;;;;;;43.33;24.95;;;5.50;99.90;;;;;;5059046;28;20043;-78
2023/04/07 05:45:53;;;;;;;40.95;22.10;;;5.50;99.90;;;;;;5067914;28;20039;-79
2023/04/07 05:48:21;;;;;;;45.10;25.48;;;5.60;99.90;;;;;;5049917;28;20036;-77
2023/04/07 05:50:48;;;;;;;39.45;24.17;;;5.50;99.90;;;;;;5050366;28;20110;-77
2023/04/07 05:53:17;;;;;;;40.83;24.42;;;5.40;99.90;;;;;;5066375;28;20078;-78
2023/04/07 05:55:44;;;;;;;37.35;21.08;;;5.50;99.90;;;;;;5066289;28;20120;-78
2023/04/07 05:58:19;;;;;;;33.63;17.77;;;5.50;99.90;;;;;;5054222;28;20044;-78
2023/04/07 06:00:49;;;;;;;36.88;23.17;;;5.50;99.90;;;;;;5057986;28;20320;-78
2023/04/07 06:03:17;;;;;;;36.58;22.20;;;5.50;99.90;;;;;;5054888;28;20265;-78
2023/04/07 06:05:57;;;;;;;38.47;23.25;;;5.50;99.90;;;;;;5054062;28;20126;-78
2023/04/07 06:08:24;;;;;;;38.35;22.73;;;5.60;99.90;;;;;;5070963;28;20668;-78
2023/04/07 06:10:51;;;;;;;35.83;20.70;;;5.70;99.90;;;;;;5068760;28;20219;-78
2023/04/07 06:13:18;;;;;;;39.88;24.88;;;5.70;99.90;;;;;;5063514;28;20055;-77
2023/04/07 06:15:45;;;;;;;42.67;23.60;;;5.70;99.90;;;;;;5045795;28;20532;-78
2023/04/07 06:18:12;;;;;;;37.38;23.65;;;5.80;99.90;;;;;;5053156;28;20052;-77
2023/04/07 06:20:39;;;;;;;37.40;23.90;;;5.90;99.90;;;;;;5048986;28;20109;-77
2023/04/07 06:23:06;;;;;;;43.00;22.52;;;5.90;99.90;;;;;;5067372;28;20040;-77
2023/04/07 06:25:33;;;;;;;33.78;19.55;;;5.90;99.90;;;;;;5056516;28;20086;-77
2023/04/07 06:28:00;;;;;;;36.30;21.02;;;5.80;99.90;;;;;;5041344;28;20078;-77
2023/04/07 06:30:26;;;;;;;30.73;20.08;;;5.80;99.90;;;;;;5048327;28;20097;-77
2023/04/07 06:32:53;;;;;;;35.22;21.17;;;5.80;99.90;;;;;;5049432;28;20036;-76
2023/04/07 06:35:20;;;;;;;27.80;15.45;;;5.90;99.90;;;;;;5045791;28;20155;-76
2023/04/07 06:37:47;;;;;;;35.72;22.77;;;5.70;99.90;;;;;;5063275;28;20039;-77
2023/04/07 06:40:14;;;;;;;34.08;21.20;;;5.70;99.90;;;;;;5059456;28;20733;-77
2023/04/07 06:42:41;;;;;;;30.05;19.42;;;5.80;99.90;;;;;;5043731;28;20693;-76
2023/04/07 06:45:20;;;;;;;33.30;20.20;;;5.70;99.90;;;;;;5045876;28;20099;-76
2023/04/07 06:47:47;;;;;;;32.78;19.50;;;5.80;99.90;;;;;;5058087;28;20667;-77
2023/04/07 06:50:14;;;;;;;29.00;19.30;;;5.80;99.90;;;;;;5055601;28;20067;-76
2023/04/07 06:52:41;;;;;;;32.47;19.42;;;5.90;99.90;;;;;;5031714;28;20106;-76
2023/04/07 06:55:08;;;;;;;26.38;17.90;;;5.90;99.90;;;;;;5055729;28;20138;-76
2023/04/07 06:57:34;;;;;;;29.70;18.65;;;5.90;99.90;;;;;;5049032;28;20119;-76
2023/04/07 07:00:02;;;;;;;35.65;21.65;;;6.00;99.90;;;;;;5066565;28;20042;-77
2023/04/07 07:02:28;;;;;;;34.13;20.77;;;6.00;99.90;;;;;;5049717;28;20036;-77
2023/04/07 07:04:55;;;;;;;28.88;17.60;;;6.00;99.90;;;;;;5042780;28;20044;-76
2023/04/07 07:07:24;;;;;;;110.18;94.18;;;6.10;99.90;;;;;;5049597;28;20212;-77
2023/04/07 07:09:52;;;;;;;26.92;16.05;;;6.10;99.90;;;;;;5049814;28;20353;-77
2023/04/07 07:12:19;;;;;;;38.47;29.38;;;6.10;99.90;;;;;;5043000;28;20107;-77
2023/04/07 07:14:46;;;;;;;26.02;16.52;;;6.10;99.90;;;;;;5048751;28;20040;-78
2023/04/07 07:17:13;;;;;;;25.92;16.92;;;6.10;99.90;;;;;;5067712;28;20071;-77
2023/04/07 07:19:41;;;;;;;24.95;18.30;;;6.20;99.90;;;;;;5064344;28;20578;-77
2023/04/07 07:22:08;;;;;;;26.27;16.50;;;6.30;99.90;;;;;;5066863;28;20468;-77
2023/04/07 07:24:35;;;;;;;24.27;16.98;;;6.30;99.90;;;;;;5065394;28;20052;-77
2023/04/07 07:27:02;;;;;;;25.08;17.02;;;6.30;99.90;;;;;;5048612;28;20037;-77
2023/04/07 07:29:29;;;;;;;25.23;16.88;;;6.50;99.90;;;;;;5048141;28;20044;-76
2023/04/07 07:31:56;;;;;;;23.15;16.63;;;6.40;99.90;;;;;;5063884;28;20082;-76
2023/04/07 07:34:22;;;;;;;20.38;17.10;;;6.50;99.90;;;;;;5048919;28;20062;-77
2023/04/07 07:36:49;;;;;;;20.08;14.80;;;6.50;99.90;;;;;;5064721;28;20044;-77
2023/04/07 07:39:16;;;;;;;24.02;18.98;;;6.50;99.90;;;;;;5067100;28;20043;-77
2023/04/07 07:41:42;;;;;;;21.73;17.80;;;6.60;99.90;;;;;;5052168;28;20512;-76
2023/04/07 07:44:09;;;;;;;22.25;18.40;;;6.50;99.90;;;;;;5055721;28;20166;-77
2023/04/07 07:46:36;;;;;;;142.13;72.45;;;6.50;99.90;;;;;;5051961;28;20052;-76
2023/04/07 07:49:05;;;;;;;22.30;18.77;;;6.50;99.90;;;;;;5075429;28;20046;-76
2023/04/07 07:51:32;;;;;;;21.27;18.10;;;6.60;99.90;;;;;;5070562;28;20040;-77
2023/04/07 07:53:59;;;;;;;75.00;47.88;;;6.60;99.90;;;;;;5048504;28;20071;-77
2023/04/07 07:56:26;;;;;;;21.67;17.90;;;6.60;99.90;;;;;;5054331;28;20058;-77
2023/04/07 07:58:53;;;;;;;19.83;16.83;;;6.70;99.90;;;;;;5071169;28;20080;-77
2023/04/07 08:01:20;;;;;;;21.08;16.85;;;6.50;99.90;;;;;;5071486;28;20116;-76
2023/04/07 08:03:46;;;;;;;31.40;23.73;;;6.60;99.90;;;;;;5069581;28;20040;-76
2023/04/07 08:06:15;;;;;;;19.77;16.90;;;6.80;99.90;;;;;;5067946;28;20063;-76
2023/04/07 08:08:42;;;;;;;21.45;19.20;;;6.90;99.90;;;;;;5084799;28;20048;-77
2023/04/07 08:11:09;;;;;;;19.77;17.77;;;7.00;99.90;;;;;;5070032;28;20048;-76
2023/04/07 08:13:35;;;;;;;21.77;19.58;;;7.00;99.90;;;;;;5055864;28;20136;-77
2023/04/07 08:16:02;;;;;;;27.70;24.70;;;7.00;99.90;;;;;;5052553;28;20044;-77
2023/04/07 08:18:29;;;;;;;22.08;19.73;;;7.00;99.90;;;;;;5073375;28;20076;-76
2023/04/07 08:20:57;;;;;;;30.35;27.33;;;7.10;99.90;;;;;;5070076;28;20132;-78
2023/04/07 08:23:24;;;;;;;22.58;20.42;;;7.00;99.90;;;;;;5052444;28;20111;-76
2023/04/07 08:25:51;;;;;;;22.40;20.30;;;7.10;99.90;;;;;;5072024;28;20151;-76
2023/04/07 08:28:18;;;;;;;22.65;19.90;;;7.10;99.90;;;;;;5068813;28;20060;-78
2023/04/07 08:30:45;;;;;;;24.90;22.50;;;7.10;99.90;;;;;;5055765;28;20127;-76
2023/04/07 08:33:11;;;;;;;23.15;20.98;;;7.00;99.90;;;;;;5072000;28;20070;-78
2023/04/07 08:35:38;;;;;;;71.75;48.83;;;7.10;99.90;;;;;;5051129;28;20044;-75
2023/04/07 08:38:05;;;;;;;62.03;44.83;;;7.20;99.90;;;;;;5048203;28;20308;-77
2023/04/07 08:40:32;;;;;;;28.13;25.20;;;7.20;99.90;;;;;;5050057;28;20036;-77
2023/04/07 08:43:00;;;;;;;28.02;25.45;;;7.30;99.90;;;;;;5071260;28;20046;-76
2023/04/07 08:45:27;;;;;;;26.63;24.05;;;7.30;99.90;;;;;;5069604;28;20135;-76
2023/04/07 08:47:56;;;;;;;26.27;23.88;;;7.10;99.90;;;;;;5067703;28;20043;-77
2023/04/07 08:50:26;;;;;;;41.45;37.10;;;7.00;99.90;;;;;;5068089;28;20048;-77
2023/04/07 08:52:55;;;;;;;32.85;29.45;;;7.10;99.90;;;;;;5042229;28;20732;-76
2023/04/07 08:55:22;;;;;;;35.03;31.50;;;7.20;99.90;;;;;;5066771;28;20075;-76
2023/04/07 08:57:51;;;;;;;27.25;25.10;;;7.20;99.90;;;;;;5050957;28;20685;-76
2023/04/07 09:00:19;;;;;;;29.08;26.45;;;7.00;99.90;;;;;;5069867;28;20078;-77
2023/04/07 09:02:48;;;;;;;23.92;22.08;;;7.10;99.90;;;;;;5064103;28;20127;-76
2023/04/07 09:05:15;;;;;;;24.75;22.83;;;7.20;99.90;;;;;;5047729;28;20402;-77
2023/04/07 09:07:42;;;;;;;25.38;23.38;;;7.20;99.90;;;;;;5064774;28;20040;-76
2023/04/07 09:10:09;;;;;;;28.95;26.30;;;7.30;99.90;;;;;;5049933;28;20044;-76
2023/04/07 09:12:37;;;;;;;28.27;25.35;;;7.40;99.90;;;;;;5050567;28;20051;-76
2023/04/07 09:15:07;;;;;;;27.98;25.60;;;7.40;99.90;;;;;;5065867;28;20040;-76
2023/04/07 09:17:34;;;;;;;32.92;29.77;;;7.40;99.90;;;;;;5065207;28;20112;-76
2023/04/07 09:20:02;;;;;;;25.20;23.02;;;7.50;99.90;;;;;;5061664;28;20051;-75
2023/04/07 09:22:41;;;;;;;21.30;19.77;;;7.50;99.90;;;;;;5047769;28;20792;-76
2023/04/07 09:25:16;;;;;;;26.73;24.50;;;7.40;99.90;;;;;;5064823;28;20118;-78
2023/04/07 09:28:03;;;;;;;26.00;23.83;;;7.50;99.90;;;;;;5048615;28;20119;-78
2023/04/07 09:30:31;;;;;;;23.38;21.67;;;7.50;99.90;;;;;;5067663;28;20068;-79
2023/04/07 09:33:00;;;;;;;21.77;20.13;;;7.50;99.90;;;;;;5066349;28;20039;-75
2023/04/07 09:35:27;;;;;;;26.15;24.02;;;7.60;99.90;;;;;;5052002;28;20045;-78
2023/04/07 09:38:02;;;;;;;21.88;20.42;;;7.70;99.90;;;;;;5053397;28;20032;-75
2023/04/07 09:40:29;;;;;;;24.47;22.63;;;7.80;99.90;;;;;;5088684;28;20046;-80
2023/04/07 09:42:57;;;;;;;23.83;22.33;;;7.80;99.90;;;;;;5069806;28;20040;-81
2023/04/07 09:45:28;;;;;;;35.97;32.17;;;7.80;99.90;;;;;;5082983;28;20528;-80
2023/04/07 09:47:57;;;;;;;24.25;22.52;;;7.90;99.90;;;;;;5065865;28;20075;-75
2023/04/07 09:50:34;;;;;;;32.25;29.45;;;8.10;99.90;;;;;;5079464;28;20127;-80
2023/04/07 09:53:02;;;;;;;26.50;24.80;;;8.20;99.90;;;;;;5060584;28;20134;-77
2023/04/07 09:55:30;;;;;;;24.35;22.90;;;8.20;99.90;;;;;;5061954;28;20647;-75
2023/04/07 09:57:57;;;;;;;55.53;40.60;;;8.20;99.90;;;;;;5046654;28;20672;-76
2023/04/07 10:00:24;;;;;;;24.33;22.73;;;8.20;99.90;;;;;;5061531;28;20131;-75
2023/04/07 10:02:51;;;;;;;25.90;24.20;;;8.40;99.90;;;;;;5063360;28;20028;-76
2023/04/07 10:05:20;;;;;;;27.88;25.83;;;8.60;99.90;;;;;;5064116;28;20119;-77
2023/04/07 10:07:47;;;;;;;30.98;28.52;;;8.60;99.90;;;;;;5063147;23;20292;-73
2023/04/07 10:10:14;;;;;;;28.27;26.27;;;8.70;99.90;;;;;;5033708;28;20706;-73
2023/04/07 10:12:42;;;;;;;31.83;29.13;;;8.90;99.90;;;;;;5049269;28;20486;-72
2023/04/07 10:15:12;;;;;;;55.83;50.70;;;8.80;99.90;;;;;;5043628;28;20274;-73
2023/04/07 10:17:40;;;;;;;27.55;25.85;;;8.80;99.90;;;;;;5034770;28;20052;-73
2023/04/07 10:20:09;;;;;;;30.15;28.15;;;8.70;99.90;;;;;;5036467;28;20554;-73
2023/04/07 10:22:37;;;;;;;29.50;27.58;;;8.90;99.90;;;;;;5013275;28;20499;-74
2023/04/07 10:25:10;;;;;;;31.20;29.30;;;9.10;99.90;;;;;;5025678;28;20091;-74
2023/04/07 10:27:51;;;;;;;31.50;29.50;;;9.40;99.90;;;;;;5034051;28;20044;-73
2023/04/07 10:30:32;;;;;;;30.30;28.33;;;9.70;99.90;;;;;;5030537;28;20184;-74
2023/04/07 10:32:59;;;;;;;31.55;29.48;;;9.80;99.90;;;;;;5043020;28;20131;-74
2023/04/07 10:35:25;;;;;;;34.78;32.47;;;9.70;99.90;;;;;;5029847;28;20107;-74
2023/04/07 10:38:12;;;;;;;35.70;33.42;;;9.80;99.90;;;;;;5029720;28;20495;-74
2023/04/07 10:40:40;;;;;;;33.97;31.58;;;10.00;99.90;;;;;;5031941;28;20049;-75
2023/04/07 10:43:09;;;;;;;35.08;32.78;;;10.00;99.90;;;;;;5049225;28;20265;-73
2023/04/07 10:45:48;;;;;;;37.35;34.95;;;9.90;99.90;;;;;;5048424;28;20029;-73
2023/04/07 10:48:17;;;;;;;34.05;31.75;;;9.90;99.90;;;;;;5032119;28;20341;-73
2023/04/07 10:51:06;;;;;;;35.13;32.65;;;9.80;99.90;;;;;;5030001;28;20775;-72
2023/04/07 10:53:37;;;;;;;35.10;32.60;;;9.80;99.90;;;;;;5030431;28;20043;-74
2023/04/07 10:56:04;;;;;;;33.45;31.05;;;9.70;99.90;;;;;;5044281;28;20047;-73
2023/04/07 10:58:32;;;;;;;34.38;32.08;;;9.80;99.90;;;;;;5026161;28;20037;-74
2023/04/07 11:01:13;;;;;;;39.60;36.65;;;9.80;99.90;;;;;;5029403;28;20044;-75
2023/04/07 11:03:51;;;;;;;39.10;36.42;;;10.00;99.90;;;;;;5050834;28;20405;-74
2023/04/07 11:06:18;;;;;;;40.15;37.60;;;10.40;99.90;;;;;;5048417;28;20075;-74
2023/04/07 11:08:46;;;;;;;34.65;31.90;;;10.80;99.90;;;;;;5045906;28;20856;-74
2023/04/07 11:11:19;;;;;;;36.45;33.75;;;10.80;99.90;;;;;;5031529;28;20043;-74
2023/04/07 11:13:47;;;;;;;44.65;41.28;;;10.50;99.90;;;;;;5045490;28;20561;-73
2023/04/07 11:16:16;;;;;;;50.20;46.63;;;10.20;99.90;;;;;;5032758;28;20107;-74
2023/04/07 11:18:45;;;;;;;42.70;39.80;;;10.30;99.90;;;;;;5052577;28;20074;-73
2023/04/07 11:21:16;;;;;;;42.45;39.47;;;10.10;99.90;;;;;;5053382;28;20051;-73
2023/04/07 11:23:44;;;;;;;40.28;37.50;;;10.20;99.90;;;;;;5067367;28;20071;-74
2023/04/07 11:26:14;;;;;;;40.78;38.08;;;10.20;99.90;;;;;;5035993;28;20083;-74
2023/04/07 11:28:47;;;;;;;44.53;41.22;;;10.30;99.90;;;;;;5051413;28;20047;-74
2023/04/07 11:31:47;;;;;;;49.95;46.33;;;10.50;99.90;;;;;;5030480;28;20040;-74
2023/04/07 11:34:13;;;;;;;43.75;40.80;;;10.80;99.90;;;;;;5049898;28;20048;-73
2023/04/07 11:36:40;;;;;;;41.83;38.83;;;11.00;99.90;;;;;;5023953;28;20270;-73
2023/04/07 11:39:20;;;;;;;43.67;40.58;;;11.10;99.90;;;;;;5011945;28;20512;-73
2023/04/07 11:41:49;;;;;;;46.00;42.80;;;11.20;99.90;;;;;;5044380;28;20037;-74
2023/04/07 11:44:16;;;;;;;42.17;39.33;;;11.40;99.90;;;;;;5019290;28;20128;-75
2023/04/07 11:49:28;;;;;;;51.08;46.85;;;11.80;99.90;;;;;;4984611;28;20055;-71
2023/04/07 11:52:03;;;;;;;44.22;41.22;;;11.80;99.90;;;;;;4990116;28;20137;-72
2023/04/07 11:54:43;;;;;;;;;;;11.80;99.90;;;;;;4987343;28;20128;-72
2023/04/07 11:57:11;;;;;;;46.08;43.00;;;11.90;99.90;;;;;;4988176;28;19921;-71
2023/04/07 11:59:40;;;;;;;49.38;45.88;;;12.00;99.90;;;;;;4990484;28;20040;-72
2023/04/07 12:02:07;;;;;;;50.15;46.55;;;12.20;99.90;;;;;;4989951;28;20052;-72
2023/04/07 12:04:36;;;;;;;47.45;44.15;;;12.20;99.90;;;;;;4994017;28;20050;-71
2023/04/07 12:07:08;;;;;;;49.95;46.55;;;12.20;99.90;;;;;;4989737;28;20045;-72
2023/04/07 12:09:36;;;;;;;50.28;46.78;;;12.30;99.90;;;;;;4988367;28;20424;-71
2023/04/07 12:12:05;;;;;;;51.78;48.15;;;12.30;99.90;;;;;;4988582;28;20065;-71
2023/04/07 12:14:32;;;;;;;51.20;47.60;;;12.10;99.90;;;;;;4993297;28;20368;-70
2023/04/07 12:17:02;;;;;;;51.40;47.83;;;12.20;99.90;;;;;;4987438;28;20528;-71
2023/04/07 12:19:31;;;;;;;47.60;44.10;;;12.40;99.90;;;;;;4990348;28;20283;-70
2023/04/07 12:21:58;;;;;;;46.90;43.65;;;12.50;99.90;;;;;;4987661;28;20040;-71
2023/04/07 12:24:24;;;;;;;50.40;47.03;;;12.10;99.90;;;;;;4992153;28;20054;-71
2023/04/07 12:26:52;;;;;;;49.33;45.65;;;12.00;99.90;;;;;;4987024;28;20066;-71
2023/04/07 12:29:19;;;;;;;49.85;46.15;;;12.10;99.90;;;;;;4990696;28;20105;-72
2023/04/07 12:31:46;;;;;;;51.45;47.40;;;11.80;99.90;;;;;;4992630;28;20056;-72
2023/04/07 12:34:16;;;;;;;49.30;45.92;;;12.00;99.90;;;;;;4971536;28;20038;-71
2023/04/07 12:36:43;;;;;;;48.53;44.78;;;12.30;99.90;;;;;;4989851;28;20536;-71
2023/04/07 12:39:10;;;;;;;49.20;45.55;;;12.70;99.90;;;;;;4990273;28;20081;-72
2023/04/07 12:41:37;;;;;;;49.67;46.08;;;13.30;99.90;;;;;;4991064;28;20053;-71
2023/04/07 12:44:04;;;;;;;49.72;46.40;;;13.30;99.90;;;;;;4995129;28;20040;-71
2023/04/07 12:46:31;;;;;;;50.95;47.30;;;12.70;99.90;;;;;;4998210;28;20048;-72
2023/04/07 12:48:58;;;;;;;47.47;44.08;;;12.70;99.90;;;;;;4992833;28;20100;-71
2023/04/07 12:51:25;;;;;;;50.08;46.40;;;12.90;99.90;;;;;;4995691;28;20152;-71